Time;durP1;ratioP1;P1;durP2;ratioP2;P2;SDS_P1;SDS_P2;PMS_P1;PMS_P2;Temp;Humidity;BMP_temperature;BMP_pressure;BME280_temperature;BME280_humidity;BME280_pressure;Samples;Min_cycle;Max_cycle;Signal;HPM_P1;HPM_P2
2023/09/29 00:00:37;;;;;;;8.90;1.20;;;;;;;20.21;99.04;100507.94;7360706;19;20278;-66
2023/09/29 00:03:06;;;;;;;10.07;0.85;;;;;;;20.25;99.84;100503.78;7359782;19;20014;-67
2023/09/29 00:05:35;;;;;;;10.25;0.98;;;;;;;20.27;99.88;100509.69;7358739;19;20396;-66
2023/09/29 00:08:03;;;;;;;7.18;0.98;;;;;;;20.25;99.59;100501.91;7358769;19;20014;-66
2023/09/29 00:10:30;;;;;;;6.93;0.70;;;;;;;20.24;99.36;100500.28;7360024;19;20064;-66
2023/09/29 00:12:58;;;;;;;7.13;1.00;;;;;;;20.24;99.79;100500.28;7359147;19;20014;-66
2023/09/29 00:15:26;;;;;;;6.80;1.00;;;;;;;20.25;100.00;100498.44;7358075;19;20025;-67
2023/09/29 00:17:53;;;;;;;9.27;0.90;;;;;;;20.27;100.00;100507.00;7358965;19;20044;-66
2023/09/29 00:20:24;;;;;;;5.88;0.88;;;;;;;20.26;100.00;100500.88;7361737;19;20538;-66
2023/09/29 00:22:53;;;;;;;4.20;0.80;;;;;;;20.25;100.00;100506.44;7354268;19;20056;-65
2023/09/29 00:25:21;;;;;;;10.13;0.88;;;;;;;20.24;100.00;100494.94;7359445;19;20271;-65
2023/09/29 00:27:49;;;;;;;5.80;0.90;;;;;;;20.27;100.00;100497.16;7354443;19;20033;-65
2023/09/29 00:30:17;;;;;;;6.38;0.90;;;;;;;20.27;100.00;100502.50;7359149;19;20019;-66
2023/09/29 00:32:48;;;;;;;9.43;1.17;;;;;;;20.24;100.00;100492.25;7360522;19;20462;-65
2023/09/29 00:35:24;;;;;;;6.28;0.95;;;;;;;20.25;100.00;100504.59;7360474;19;20119;-65
2023/09/29 00:37:53;;;;;;;10.50;1.30;;;;;;;20.24;100.00;100499.47;7355815;19;20039;-66
2023/09/29 00:40:23;;;;;;;8.82;0.88;;;;;;;20.25;100.00;100496.56;7358484;19;20045;-66
2023/09/29 00:42:50;;;;;;;7.40;0.70;;;;;;;20.27;100.00;100493.66;7356906;19;21556;-66
2023/09/29 00:45:20;;;;;;;4.88;1.02;;;;;;;20.26;100.00;100495.53;7357892;19;20013;-66
2023/09/29 00:47:50;;;;;;;5.88;0.90;;;;;;;20.25;100.00;100496.56;7359841;19;20542;-66
2023/09/29 00:50:20;;;;;;;5.22;0.80;;;;;;;20.25;100.00;100490.41;7359616;19;20018;-65
2023/09/29 00:52:52;;;;;;;6.15;0.75;;;;;;;20.25;100.00;100480.53;7360826;19;20021;-66
2023/09/29 00:55:24;;;;;;;12.60;0.98;;;;;;;20.25;100.00;100480.53;7359458;19;20538;-65
2023/09/29 00:57:51;;;;;;;5.57;0.80;;;;;;;20.27;100.00;100477.63;7353738;19;20022;-66
2023/09/29 01:00:29;;;;;;;6.60;0.88;;;;;;;20.27;100.00;100483.78;7358508;19;20037;-65
2023/09/29 01:03:05;;;;;;;5.47;1.00;;;;;;;20.27;100.00;100480.28;7357594;19;20018;-67
2023/09/29 01:05:36;;;;;;;6.97;0.93;;;;;;;20.23;100.00;100471.91;7356490;19;20019;-66
2023/09/29 01:08:08;;;;;;;11.13;1.10;;;;;;;20.22;100.00;100475.63;7356380;19;20094;-66
2023/09/29 01:10:40;;;;;;;5.72;1.20;;;;;;;20.24;100.00;100467.38;7357741;19;20408;-66
2023/09/29 01:13:09;;;;;;;7.63;1.27;;;;;;;20.24;100.00;100472.72;7354864;19;21768;-66
2023/09/29 01:15:39;;;;;;;8.50;2.03;;;;;;;20.20;100.00;100472.38;7358635;19;20794;-65
2023/09/29 01:18:09;;;;;;;7.60;1.00;;;;;;;20.19;100.00;100470.75;7351843;19;20643;-66
2023/09/29 01:20:40;;;;;;;10.00;1.42;;;;;;;20.14;100.00;100465.25;7359790;19;20497;-66
2023/09/29 01:23:09;;;;;;;8.15;0.90;;;;;;;20.15;100.00;100466.88;7355303;19;20550;-66
2023/09/29 01:25:37;;;;;;;6.32;0.93;;;;;;;20.12;100.00;100463.81;7355666;19;20022;-65
2023/09/29 01:28:07;;;;;;;4.45;0.93;;;;;;;20.10;100.00;100473.94;7355696;19;20055;-66
2023/09/29 01:30:36;;;;;;;5.97;1.00;;;;;;;20.09;100.00;100473.13;7355748;19;20018;-66
2023/09/29 01:33:04;;;;;;;5.40;1.27;;;;;;;20.06;100.00;100471.69;7359692;19;20018;-67
2023/09/29 01:35:32;;;;;;;4.72;1.20;;;;;;;20.04;100.00;100468.44;7355781;19;20037;-65
2023/09/29 01:38:00;;;;;;;6.57;1.67;;;;;;;20.04;100.00;100464.97;7354341;19;20022;-65
2023/09/29 01:40:29;;;;;;;7.05;1.67;;;;;;;20.03;100.00;100461.47;7356105;19;20733;-66
2023/09/29 01:42:57;;;;;;;8.07;2.60;;;;;;;20.05;100.00;100462.06;7354040;19;20025;-66
2023/09/29 01:45:26;;;;;;;6.75;1.55;;;;;;;20.08;100.00;100458.13;7359448;19;20624;-66
2023/09/29 01:47:54;;;;;;;6.63;1.55;;;;;;;20.07;100.00;100456.50;7358049;19;20029;-66
2023/09/29 01:50:23;;;;;;;7.10;1.95;;;;;;;20.05;100.00;100453.25;7356623;19;20025;-66
2023/09/29 01:52:51;;;;;;;9.05;2.17;;;;;;;20.03;100.00;100449.97;7359332;19;20915;-67
2023/09/29 01:55:20;;;;;;;7.57;2.30;;;;;;;20.03;100.00;100449.97;7353127;19;20015;-67
2023/09/29 01:57:49;;;;;;;9.23;1.88;;;;;;;20.01;100.00;100444.84;7351813;19;20011;-66
2023/09/29 02:00:24;;;;;;;9.60;4.85;;;;;;;20.03;100.00;100437.44;7353940;19;20014;-65
2023/09/29 02:02:53;;;;;;;5.85;1.55;;;;;;;20.06;100.00;100436.19;7357101;19;20051;-65
2023/09/29 02:05:22;;;;;;;5.78;1.48;;;;;;;20.06;100.00;100438.84;7354334;19;20029;-65
2023/09/29 02:07:53;;;;;;;4.93;1.23;;;;;;;20.06;100.00;100447.66;7354838;19;20019;-65
2023/09/29 02:10:21;;;;;;;6.22;1.38;;;;;;;20.04;100.00;100433.72;7354353;19;20015;-66
2023/09/29 02:12:55;;;;;;;8.23;1.70;;;;;;;20.05;100.00;100435.38;7354377;19;20021;-65
2023/09/29 02:15:22;;;;;;;6.95;1.98;;;;;;;20.07;100.00;100430.59;7354835;19;20015;-66
2023/09/29 02:17:50;;;;;;;5.50;1.42;;;;;;;20.08;100.00;100432.22;7354379;19;20030;-65
2023/09/29 02:20:20;;;;;;;5.05;1.38;;;;;;;20.08;100.00;100428.75;7355212;19;20526;-66
2023/09/29 02:22:48;;;;;;;5.82;1.02;;;;;;;20.07;100.00;100424.44;7355516;19;20412;-66
2023/09/29 02:25:25;;;;;;;6.53;1.02;;;;;;;20.07;100.00;100429.78;7349205;19;20047;-66
2023/09/29 02:27:55;;;;;;;6.22;1.40;;;;;;;20.06;100.00;100428.94;7354477;19;20035;-66
2023/09/29 02:30:24;;;;;;;6.75;1.30;;;;;;;20.06;100.00;100426.28;7353500;19;20793;-65
2023/09/29 02:32:52;;;;;;;5.68;1.00;;;;;;;20.09;100.00;100422.34;7355489;19;20019;-66
2023/09/29 02:35:20;;;;;;;7.75;1.73;;;;;;;20.08;100.00;100429.56;7351104;19;20014;-65
2023/09/29 02:37:48;;;;;;;7.32;1.50;;;;;;;20.07;100.00;100433.25;7352316;19;20025;-69
2023/09/29 02:40:15;;;;;;;6.00;0.73;;;;;;;20.07;100.00;100432.44;7355058;19;20014;-65
2023/09/29 02:42:44;;;;;;;4.82;1.08;;;;;;;20.05;100.00;100440.69;7354322;19;20661;-66
2023/09/29 02:45:13;;;;;;;7.32;1.05;;;;;;;20.06;100.00;100428.94;7353088;19;20037;-65
2023/09/29 02:47:42;;;;;;;6.07;1.35;;;;;;;20.07;100.00;100432.44;7355863;19;20018;-66
2023/09/29 02:50:12;;;;;;;10.88;1.73;;;;;;;20.11;100.00;100435.50;7355557;19;20011;-64
2023/09/29 02:52:41;;;;;;;3.45;0.75;;;;;;;20.12;100.00;100437.13;7356326;19;20018;-65
2023/09/29 02:55:12;;;;;;;5.38;0.60;;;;;;;20.11;100.00;100436.31;7355761;19;20039;-65
2023/09/29 02:57:42;;;;;;;4.82;0.88;;;;;;;20.09;100.00;100438.38;7351523;19;20111;-66
2023/09/29 03:00:15;;;;;;;4.30;0.70;;;;;;;20.07;100.00;100445.81;7355561;19;21874;-65
2023/09/29 03:02:43;;;;;;;2.00;0.60;;;;;;;20.07;100.00;100438.59;7353818;19;20508;-65
2023/09/29 03:05:14;;;;;;;4.20;1.20;;;;;;;20.08;100.00;100437.56;7354559;19;20590;-65
2023/09/29 03:07:42;;;;;;;5.40;1.13;;;;;;;20.13;100.00;100436.91;7352943;19;20086;-65
2023/09/29 03:10:13;;;;;;;5.00;0.77;;;;;;;20.13;100.00;100460.13;7354614;19;20045;-65
2023/09/29 03:12:42;;;;;;;6.32;0.50;;;;;;;20.15;100.00;100490.13;7350508;19;20767;-65
2023/09/29 03:15:14;;;;;;;2.10;0.82;;;;;;;20.01;100.00;100508.94;7354068;19;20783;-65
2023/09/29 03:17:44;;;;;;;1.05;0.20;;;;;;;19.87;100.00;100504.78;7353926;19;20070;-69
2023/09/29 03:20:12;;;;;;;1.63;0.10;;;;;;;19.69;100.00;100517.31;7351878;19;20010;-65
2023/09/29 03:22:41;;;;;;;0.85;0.05;;;;;;;19.58;100.00;100519.66;7354165;19;20470;-66
2023/09/29 03:25:09;;;;;;;0.50;0.00;;;;;;;19.41;100.00;100523.88;7350029;19;20022;-65
2023/09/29 03:27:38;;;;;;;0.38;0.00;;;;;;;19.36;100.00;100530.91;7346243;19;20015;-66
2023/09/29 03:30:08;;;;;;;1.23;0.00;;;;;;;19.28;100.00;100537.34;7354741;19;20014;-66
2023/09/29 03:32:35;;;;;;;0.88;0.10;;;;;;;19.20;100.00;100548.25;7355176;19;20037;-66
2023/09/29 03:35:05;;;;;;;0.22;0.00;;;;;;;19.14;100.00;100551.81;7354702;19;20584;-64
2023/09/29 03:40:11;;;;;;;0.13;0.00;;;;;;;19.05;100.00;100555.75;7355082;19;20027;-65
2023/09/29 03:42:41;;;;;;;0.30;0.03;;;;;;;18.98;100.00;100555.00;7353234;19;20518;-65
2023/09/29 03:45:11;;;;;;;0.32;0.08;;;;;;;18.96;100.00;100551.72;7353156;19;20027;-65
2023/09/29 03:47:39;;;;;;;0.17;0.10;;;;;;;18.92;100.00;100558.50;7353740;19;20043;-66
2023/09/29 03:50:11;;;;;;;1.17;0.00;;;;;;;18.90;100.00;100561.38;7351016;19;20039;-65
2023/09/29 03:52:41;;;;;;;0.65;0.10;;;;;;;18.85;100.00;100558.53;7355375;19;20026;-65
2023/09/29 03:55:12;;;;;;;1.00;0.00;;;;;;;18.84;100.00;100569.44;7352980;19;20015;-67
2023/09/29 03:57:41;;;;;;;0.50;0.10;;;;;;;18.83;100.00;100570.47;7349077;19;20649;-65
2023/09/29 04:00:12;;;;;;;0.20;0.00;;;;;;;18.81;100.00;100578.66;7350639;19;20018;-65
2023/09/29 04:02:40;;;;;;;0.38;0.10;;;;;;;18.78;100.00;100587.09;7355404;19;20498;-65
2023/09/29 04:05:09;;;;;;;0.40;0.10;;;;;;;18.77;100.00;100590.78;7348682;19;20051;-65
2023/09/29 04:07:39;;;;;;;0.45;0.10;;;;;;;18.76;100.00;100594.47;7351960;19;20597;-66
2023/09/29 04:10:09;;;;;;;1.08;0.10;;;;;;;18.72;100.00;100609.25;7352420;19;20756;-65
2023/09/29 04:12:38;;;;;;;0.43;0.10;;;;;;;18.72;100.00;100610.09;7348250;19;20026;-65
2023/09/29 04:15:06;;;;;;;0.20;0.10;;;;;;;18.72;100.00;100617.25;7351818;19;20010;-65
2023/09/29 04:17:35;;;;;;;0.40;0.10;;;;;;;18.71;100.00;100620.94;7352964;19;20014;-66
2023/09/29 04:20:03;;;;;;;0.30;0.10;;;;;;;18.71;100.00;100627.09;7354384;19;20014;-66
2023/09/29 04:22:32;;;;;;;0.10;0.10;;;;;;;18.69;100.00;100637.16;7351617;19;20273;-65
2023/09/29 04:24:59;;;;;;;0.28;0.10;;;;;;;18.63;100.00;100637.19;7354323;19;20018;-66
2023/09/29 04:27:26;;;;;;;0.75;0.10;;;;;;;18.61;100.00;100634.72;7344806;19;20015;-65
2023/09/29 04:29:53;;;;;;;1.85;0.10;;;;;;;18.59;100.00;100644.78;7352162;19;20018;-66
2023/09/29 04:32:21;;;;;;;0.70;0.10;;;;;;;18.59;100.00;100651.97;7355977;19;20019;-64
2023/09/29 04:34:48;;;;;;;1.40;0.17;;;;;;;18.57;100.00;100664.69;7361542;19;20057;-65
2023/09/29 04:37:15;;;;;;;1.08;0.20;;;;;;;18.53;100.00;100671.44;7360523;19;20015;-66
2023/09/29 04:39:43;;;;;;;1.15;0.20;;;;;;;18.54;100.00;100679.22;7356480;19;20018;-65
2023/09/29 04:42:10;;;;;;;1.73;0.20;;;;;;;18.51;100.00;100684.13;7357402;19;20048;-65
2023/09/29 04:44:38;;;;;;;0.32;0.10;;;;;;;18.51;100.00;100689.47;7357932;19;20055;-66
2023/09/29 04:47:06;;;;;;;1.08;0.20;;;;;;;18.52;100.00;100699.91;7357739;19;20010;-65
2023/09/29 04:49:33;;;;;;;1.17;0.20;;;;;;;18.57;100.00;100704.66;7361694;19;20029;-65
2023/09/29 04:52:00;;;;;;;0.82;0.30;;;;;;;18.59;100.00;100710.63;7362351;19;20041;-65
2023/09/29 04:54:28;;;;;;;1.17;0.30;;;;;;;18.59;100.00;100719.41;7360339;19;20778;-66
2023/09/29 04:56:56;;;;;;;1.60;0.30;;;;;;;18.60;100.00;100728.22;7358605;19;20022;-65
2023/09/29 04:59:23;;;;;;;0.90;0.30;;;;;;;18.59;100.00;100731.94;7354187;19;20018;-65
2023/09/29 05:01:50;;;;;;;0.90;0.20;;;;;;;18.57;100.00;100740.13;7358276;19;20011;-65
2023/09/29 05:04:18;;;;;;;1.83;0.25;;;;;;;18.55;100.00;100746.69;7359253;19;20450;-66
2023/09/29 05:06:45;;;;;;;1.38;0.38;;;;;;;18.55;100.00;100741.34;7359074;19;20019;-65
2023/09/29 05:09:12;;;;;;;1.27;0.20;;;;;;;18.56;100.00;100751.81;7360326;19;20029;-67
2023/09/29 05:11:39;;;;;;;0.63;0.20;;;;;;;18.53;100.00;100749.53;7358112;19;20034;-65
2023/09/29 05:14:07;;;;;;;1.80;0.40;;;;;;;18.55;100.00;100762.66;7354542;19;21042;-65
2023/09/29 05:16:34;;;;;;;0.55;0.20;;;;;;;18.55;100.00;100766.16;7357160;19;20026;-65
2023/09/29 05:19:02;;;;;;;1.00;0.30;;;;;;;18.58;100.00;100772.94;7358682;19;20126;-66
2023/09/29 05:21:32;;;;;;;0.90;0.22;;;;;;;18.58;100.00;100778.28;7356805;19;20642;-65
2023/09/29 05:23:59;;;;;;;1.05;0.30;;;;;;;18.58;100.00;100784.41;7357245;19;20082;-66
2023/09/29 05:26:27;;;;;;;0.95;0.20;;;;;;;18.59;100.00;100793.25;7355802;19;20023;-66
2023/09/29 05:28:55;;;;;;;0.60;0.25;;;;;;;18.59;100.00;100802.03;7352259;19;20052;-66
2023/09/29 05:31:23;;;;;;;0.80;0.43;;;;;;;18.60;100.00;100801.00;7357976;19;20399;-66
2023/09/29 05:33:53;;;;;;;1.27;0.20;;;;;;;18.63;100.00;100815.78;7358820;19;20442;-65
2023/09/29 05:36:21;;;;;;;1.17;0.30;;;;;;;18.62;100.00;100825.63;7359905;19;20014;-66
2023/09/29 05:38:49;;;;;;;0.93;0.20;;;;;;;18.60;100.00;100827.66;7355407;19;20034;-66
2023/09/29 05:41:17;;;;;;;0.85;0.30;;;;;;;18.60;100.00;100841.00;7355101;19;20062;-65
2023/09/29 05:43:44;;;;;;;0.73;0.20;;;;;;;18.57;100.00;100845.91;7351193;19;20018;-65
2023/09/29 05:46:11;;;;;;;2.92;0.70;;;;;;;18.54;100.00;100859.66;7357561;19;21292;-65
2023/09/29 05:48:39;;;;;;;1.15;0.30;;;;;;;18.56;100.00;100879.75;7355221;19;20017;-65
2023/09/29 05:51:06;;;;;;;1.60;0.30;;;;;;;18.54;100.00;100878.31;7358656;19;20029;-67
2023/09/29 05:53:34;;;;;;;1.10;0.30;;;;;;;18.54;100.00;100891.66;7357356;19;20022;-66
2023/09/29 05:56:06;;;;;;;1.30;0.50;;;;;;;18.53;100.00;100900.63;7359174;19;20018;-65
2023/09/29 05:58:36;;;;;;;2.05;0.40;;;;;;;18.53;100.00;100909.44;7353991;19;20856;-66
2023/09/29 06:01:12;;;;;;;0.82;0.40;;;;;;;18.53;100.00;100911.28;7356455;19;20018;-66
2023/09/29 06:03:41;;;;;;;1.40;0.40;;;;;;;18.51;100.00;100914.16;7354370;19;20018;-65
2023/09/29 06:06:09;;;;;;;1.48;0.50;;;;;;;18.50;100.00;100923.16;7355045;19;20700;-66
2023/09/29 06:08:36;;;;;;;2.80;0.52;;;;;;;18.50;100.00;100927.66;7353290;19;20017;-65
2023/09/29 06:11:07;;;;;;;1.55;0.47;;;;;;;18.48;100.00;100933.22;7352404;19;20026;-65
2023/09/29 06:13:34;;;;;;;1.13;0.32;;;;;;;18.45;100.00;100935.44;7351303;19;20010;-64
2023/09/29 06:16:03;;;;;;;1.88;0.50;;;;;;;18.47;100.00;100944.91;7359601;19;20018;-65
2023/09/29 06:18:31;;;;;;;1.08;0.35;;;;;;;18.43;100.00;100948.16;7352108;19;20542;-66
2023/09/29 06:20:58;;;;;;;3.40;0.30;;;;;;;18.37;100.00;100953.28;7356735;19;20026;-66
2023/09/29 06:23:25;;;;;;;2.80;0.50;;;;;;;18.35;100.00;100965.16;7354965;19;20305;-66
2023/09/29 06:26:02;;;;;;;1.63;0.40;;;;;;;18.32;100.00;100971.72;7357029;19;20336;-66
2023/09/29 06:28:30;;;;;;;0.98;0.30;;;;;;;18.30;100.00;100973.75;7349698;19;20379;-65
2023/09/29 06:30:57;;;;;;;2.75;0.47;;;;;;;18.28;100.00;100993.63;7353243;19;20018;-65
2023/09/29 06:33:25;;;;;;;2.50;0.30;;;;;;;18.26;100.00;100996.47;7360523;19;20561;-66
2023/09/29 06:35:53;;;;;;;4.10;0.40;;;;;;;18.26;100.00;101000.97;7355341;19;20374;-65
2023/09/29 06:38:20;;;;;;;1.52;0.40;;;;;;;18.26;100.00;101008.97;7355630;19;20018;-65
2023/09/29 06:40:47;;;;;;;3.03;0.43;;;;;;;18.21;100.00;101014.91;7356952;19;20022;-65
2023/09/29 06:43:17;;;;;;;3.72;0.38;;;;;;;18.26;100.00;101019.63;7351073;19;20601;-65
2023/09/29 06:45:44;;;;;;;2.75;0.50;;;;;;;18.33;100.00;101026.66;7357919;19;20371;-65
2023/09/29 06:48:27;;;;;;;4.95;0.45;;;;;;;18.44;100.00;101032.44;7358320;19;20021;-64
2023/09/29 06:50:59;;;;;;;1.45;0.40;;;;;;;18.44;100.00;101046.56;7355769;19;20007;-66
2023/09/29 06:53:31;;;;;;;1.73;0.45;;;;;;;18.47;100.00;101045.34;7354530;19;20498;-67
2023/09/29 06:55:59;;;;;;;5.05;0.70;;;;;;;18.47;100.00;101051.50;7356600;19;20017;-66
2023/09/29 06:58:27;;;;;;;3.55;0.38;;;;;;;18.43;100.00;101058.25;7353949;19;20018;-66
2023/09/29 07:00:56;;;;;;;2.63;0.40;;;;;;;18.38;100.00;101066.03;7356987;19;20019;-65
2023/09/29 07:03:30;;;;;;;2.22;0.47;;;;;;;18.35;100.00;101069.88;7359392;19;20041;-65
2023/09/29 07:06:01;;;;;;;4.78;0.50;;;;;;;18.35;100.00;101079.72;7353886;19;20453;-65
2023/09/29 07:08:29;;;;;;;2.65;0.40;;;;;;;18.31;100.00;101087.31;7358508;19;20075;-67
2023/09/29 07:10:57;;;;;;;2.95;0.38;;;;;;;18.30;99.55;101087.47;7355047;19;20038;-65
2023/09/29 07:13:25;;;;;;;2.55;0.40;;;;;;;18.29;99.63;101089.31;7352634;19;20506;-66
2023/09/29 07:15:53;;;;;;;1.38;0.30;;;;;;;18.32;99.42;101099.59;7355572;19;20090;-65
2023/09/29 07:18:21;;;;;;;3.90;0.40;;;;;;;18.35;99.98;101103.69;7356880;19;20014;-65
2023/09/29 07:20:52;;;;;;;1.58;0.55;;;;;;;18.37;99.87;101112.34;7354756;19;20023;-67
2023/09/29 07:23:21;;;;;;;4.28;0.40;;;;;;;18.38;100.00;101114.81;7356997;19;20045;-66
2023/09/29 07:25:52;;;;;;;2.13;0.50;;;;;;;18.35;99.59;101131.19;7354268;19;20474;-66
2023/09/29 07:28:21;;;;;;;1.58;0.40;;;;;;;18.35;99.44;101136.50;7351552;19;20023;-66
2023/09/29 07:30:48;;;;;;;2.05;0.30;;;;;;;18.36;99.88;101146.16;7353172;19;20014;-66
2023/09/29 07:33:16;;;;;;;2.03;0.52;;;;;;;18.30;99.14;101152.25;7357476;19;20015;-66
2023/09/29 07:35:44;;;;;;;2.72;0.90;;;;;;;18.28;98.38;101150.81;7353384;19;20435;-65
2023/09/29 07:38:13;;;;;;;2.83;0.40;;;;;;;18.25;98.28;101149.34;7355127;19;20010;-65
2023/09/29 07:40:41;;;;;;;4.18;0.40;;;;;;;18.23;97.80;101153.25;7349534;19;20045;-65
2023/09/29 07:43:08;;;;;;;2.95;0.30;;;;;;;18.18;97.60;101158.34;7355552;19;20118;-65
2023/09/29 07:45:36;;;;;;;1.38;0.22;;;;;;;18.22;98.31;101164.91;7356477;19;20511;-66
2023/09/29 07:48:03;;;;;;;2.42;0.30;;;;;;;18.20;97.62;101170.44;7355590;19;20015;-65
2023/09/29 07:50:31;;;;;;;1.80;0.22;;;;;;;18.23;97.69;101172.72;7355645;19;20019;-64
2023/09/29 07:53:00;;;;;;;0.88;0.30;;;;;;;18.25;97.64;101180.50;7353371;19;20015;-65
2023/09/29 07:55:27;;;;;;;1.63;0.30;;;;;;;18.23;96.94;101188.72;7355097;19;20014;-66
2023/09/29 07:57:54;;;;;;;2.72;0.20;;;;;;;18.31;97.78;101193.88;7353517;19;20788;-65
2023/09/29 08:00:22;;;;;;;2.22;0.30;;;;;;;18.35;97.22;101203.13;7353150;19;20288;-65
2023/09/29 08:02:53;;;;;;;6.95;0.30;;;;;;;18.38;96.50;101217.91;7354470;19;20575;-65
2023/09/29 08:05:22;;;;;;;2.72;0.20;;;;;;;18.39;96.38;101223.03;7352533;19;20017;-64
2023/09/29 08:07:52;;;;;;;2.92;0.28;;;;;;;18.39;96.30;101217.69;7354603;19;20014;-67
2023/09/29 08:10:19;;;;;;;0.85;0.20;;;;;;;18.43;96.55;101220.00;7361656;19;20061;-66
2023/09/29 08:12:48;;;;;;;1.33;0.20;;;;;;;18.44;95.84;101219.78;7354909;19;20018;-66
2023/09/29 08:15:20;;;;;;;1.00;0.20;;;;;;;18.47;95.60;101235.41;7362129;19;20089;-65
2023/09/29 08:17:49;;;;;;;;;;;;;;;18.48;94.38;101236.22;7360918;19;20026;-66
2023/09/29 08:20:18;;;;;;;6.18;0.40;;;;;;;18.46;94.31;101236.41;7361527;19;20356;-66
2023/09/29 08:22:46;;;;;;;3.20;0.30;;;;;;;18.50;94.50;101243.00;7358764;19;20090;-65
2023/09/29 08:25:20;;;;;;;2.88;0.20;;;;;;;18.53;92.83;101245.28;7360385;19;20414;-65
2023/09/29 08:27:48;;;;;;;2.55;0.30;;;;;;;18.51;91.60;101251.81;7358396;19;20018;-66
2023/09/29 08:30:16;;;;;;;2.60;0.30;;;;;;;18.49;91.69;101254.66;7359332;19;20325;-65
2023/09/29 08:32:44;;;;;;;2.33;0.30;;;;;;;18.50;91.36;101260.81;7360013;19;20025;-66
2023/09/29 08:35:13;;;;;;;2.92;0.20;;;;;;;18.55;90.56;101277.09;7362841;19;20537;-64
2023/09/29 08:37:42;;;;;;;2.22;0.30;;;;;;;18.52;90.87;101278.28;7366499;19;20493;-66
2023/09/29 08:40:21;;;;;;;4.60;0.20;;;;;;;18.55;91.05;101287.75;7360227;19;21488;-65
2023/09/29 08:43:06;;;;;;;4.15;0.30;;;;;;;18.56;91.49;101287.56;7357083;19;20014;-67
2023/09/29 08:45:37;;;;;;;2.03;0.38;;;;;;;18.58;91.14;101295.38;7361332;19;20344;-65
2023/09/29 08:48:11;;;;;;;1.98;0.20;;;;;;;18.55;90.05;101299.25;7362952;19;20352;-66
2023/09/29 08:50:41;;;;;;;4.68;0.30;;;;;;;18.54;90.22;101310.13;7363527;19;20903;-66
2023/09/29 08:53:10;;;;;;;3.78;0.40;;;;;;;18.52;89.52;101314.78;7358760;19;20014;-66
2023/09/29 08:55:39;;;;;;;2.33;0.30;;;;;;;18.53;87.09;101327.09;7361953;19;20057;-65
2023/09/29 08:58:10;;;;;;;2.72;0.45;;;;;;;18.50;83.55;101333.63;7355791;19;20019;-66
2023/09/29 09:00:46;;;;;;;2.08;0.20;;;;;;;18.46;82.71;101335.03;7358131;19;20037;-65
2023/09/29 09:03:19;;;;;;;2.22;0.55;;;;;;;18.48;83.54;101334.84;7362314;19;20018;-65
2023/09/29 09:05:47;;;;;;;3.78;0.45;;;;;;;18.46;82.47;101348.34;7358011;19;20022;-66
2023/09/29 09:08:29;;;;;;;1.85;0.25;;;;;;;18.51;83.63;101355.78;7361480;19;20030;-64
2023/09/29 09:11:00;;;;;;;2.25;0.30;;;;;;;18.56;83.69;101372.88;7361416;19;20011;-66
2023/09/29 09:13:30;;;;;;;1.33;0.22;;;;;;;18.62;81.33;101369.44;7356259;19;20287;-66
2023/09/29 09:15:59;;;;;;;2.42;0.38;;;;;;;18.62;82.03;101371.28;7360474;19;20064;-66
2023/09/29 09:18:27;;;;;;;1.13;0.20;;;;;;;18.60;81.35;101383.97;7357701;19;20015;-65
2023/09/29 09:20:55;;;;;;;1.70;0.30;;;;;;;18.54;80.23;101384.75;7364504;19;20533;-65
2023/09/29 09:23:23;;;;;;;2.25;0.30;;;;;;;18.50;80.44;101383.44;7361456;19;20025;-66
2023/09/29 09:25:52;;;;;;;2.80;0.30;;;;;;;18.52;81.86;101389.41;7353930;19;20025;-65
2023/09/29 09:28:22;;;;;;;3.78;0.30;;;;;;;18.48;81.71;101390.81;7357997;19;20497;-64
2023/09/29 09:31:02;;;;;;;2.05;0.30;;;;;;;18.49;80.68;101395.13;7361791;19;20014;-65
2023/09/29 09:33:32;;;;;;;2.58;0.50;;;;;;;18.58;80.96;101399.34;7356575;19;20018;-66
2023/09/29 09:36:10;;;;;;;5.03;0.68;;;;;;;18.63;79.06;101403.09;7357437;19;20022;-65
2023/09/29 09:38:40;;;;;;;3.35;0.47;;;;;;;18.60;79.69;101405.28;7360676;19;20002;-66
2023/09/29 09:41:09;;;;;;;2.25;0.50;;;;;;;18.65;80.25;101408.22;7357359;19;20018;-66
2023/09/29 09:43:38;;;;;;;3.05;0.40;;;;;;;18.68;80.23;101403.34;7354281;19;20336;-66
2023/09/29 09:46:12;;;;;;;4.70;0.40;;;;;;;18.75;80.07;101411.38;7361244;19;20014;-66
2023/09/29 09:48:49;;;;;;;3.38;0.40;;;;;;;18.74;78.37;101423.88;7360008;19;20022;-65
2023/09/29 09:51:29;;;;;;;2.70;0.40;;;;;;;18.79;79.46;101434.81;7360707;19;20022;-65
2023/09/29 09:54:02;;;;;;;5.07;0.50;;;;;;;18.79;77.36;101437.47;7358349;19;20917;-66
2023/09/29 09:56:45;;;;;;;5.43;0.50;;;;;;;18.79;77.35;101444.69;7357966;19;20047;-66
2023/09/29 09:59:16;;;;;;;3.08;0.40;;;;;;;18.76;76.64;101451.19;7353215;19;20090;-67
2023/09/29 10:01:45;;;;;;;4.45;0.40;;;;;;;18.80;76.62;101454.31;7360024;19;20015;-65
2023/09/29 10:04:19;;;;;;;2.13;0.77;;;;;;;18.82;76.27;101452.28;7329679;19;20130;-65
2023/09/29 10:06:50;;;;;;;4.68;0.50;;;;;;;18.82;75.44;101457.63;7355479;19;20015;-65
2023/09/29 10:09:18;;;;;;;4.25;0.75;;;;;;;18.79;76.42;101463.34;7352535;19;20007;-66
2023/09/29 10:11:47;;;;;;;4.55;0.50;;;;;;;18.83;76.72;101467.28;7355126;19;20029;-66
2023/09/29 10:14:15;;;;;;;4.10;0.70;;;;;;;18.85;77.86;101475.06;7354816;19;20014;-66
2023/09/29 10:16:42;;;;;;;4.43;0.77;;;;;;;18.88;78.22;101475.53;7356785;19;20034;-66
2023/09/29 10:19:12;;;;;;;3.88;0.52;;;;;;;18.95;77.08;101479.06;7355855;19;20043;-66
2023/09/29 10:21:43;;;;;;;5.45;0.70;;;;;;;18.96;75.31;101485.22;7357428;19;20018;-64
2023/09/29 10:24:13;;;;;;;2.60;0.45;;;;;;;19.02;74.45;101495.97;7358003;19;20029;-65
2023/09/29 10:26:42;;;;;;;5.15;0.88;;;;;;;19.04;72.85;101491.28;7357127;19;20014;-65
2023/09/29 10:29:18;;;;;;;5.85;0.50;;;;;;;19.09;72.46;101493.38;7355712;19;20093;-66
2023/09/29 10:31:46;;;;;;;5.15;0.60;;;;;;;19.10;70.98;101501.16;7354522;19;20018;-67
2023/09/29 10:34:21;;;;;;;3.92;0.50;;;;;;;19.12;73.27;101501.81;7355261;19;20014;-65
2023/09/29 10:36:56;;;;;;;6.43;0.70;;;;;;;19.17;74.03;101504.72;7357331;19;20017;-65
2023/09/29 10:39:26;;;;;;;8.03;0.50;;;;;;;19.21;73.16;101519.31;7359579;19;20459;-65
2023/09/29 10:41:59;;;;;;;4.50;0.60;;;;;;;19.22;70.46;101520.97;7355746;19;20271;-65
2023/09/29 10:44:28;;;;;;;6.47;0.68;;;;;;;19.24;68.45;101528.81;7356619;19;20010;-66
2023/09/29 10:46:59;;;;;;;7.22;0.65;;;;;;;19.24;66.93;101528.81;7356982;19;20019;-66
2023/09/29 10:49:32;;;;;;;3.53;0.50;;;;;;;19.28;68.07;101534.56;7361553;19;20387;-65
2023/09/29 10:51:59;;;;;;;6.82;0.85;;;;;;;19.29;68.50;101529.06;7357132;19;20490;-65
2023/09/29 10:54:28;;;;;;;4.20;0.70;;;;;;;19.33;69.47;101535.66;7355815;19;20013;-65
2023/09/29 10:56:55;;;;;;;5.90;0.95;;;;;;;19.37;67.16;101547.59;7357360;19;20743;-66
2023/09/29 10:59:23;;;;;;;6.55;0.73;;;;;;;19.39;65.21;101547.41;7355215;19;20031;-67
2023/09/29 11:01:51;;;;;;;10.55;0.95;;;;;;;19.42;67.01;101545.16;7354111;19;20045;-66
2023/09/29 11:04:18;;;;;;;6.15;0.80;;;;;;;19.49;68.02;101553.25;7354869;19;20014;-66
2023/09/29 11:06:47;;;;;;;6.78;0.80;;;;;;;19.54;68.21;101543.66;7356669;19;20018;-66
2023/09/29 11:09:16;;;;;;;7.43;0.88;;;;;;;19.56;68.10;101557.63;7357143;19;20006;-65
2023/09/29 11:11:44;;;;;;;4.00;0.57;;;;;;;19.59;65.06;101562.59;7355152;19;20029;-64
2023/09/29 11:14:11;;;;;;;6.68;0.80;;;;;;;19.62;64.94;101566.72;7351731;19;20018;-66
2023/09/29 11:16:39;;;;;;;9.73;0.77;;;;;;;19.67;63.59;101566.13;7355618;19;20114;-66
2023/09/29 11:19:10;;;;;;;6.63;0.70;;;;;;;19.64;63.76;101570.84;7355137;19;20010;-66
2023/09/29 11:21:40;;;;;;;6.50;0.70;;;;;;;19.65;64.90;101569.00;7353685;19;20021;-67
2023/09/29 11:24:10;;;;;;;6.93;0.93;;;;;;;19.69;64.89;101590.81;7357583;19;20502;-65
2023/09/29 11:26:40;;;;;;;4.70;0.80;;;;;;;19.67;64.89;101576.81;7355968;19;20089;-65
2023/09/29 11:29:22;;;;;;;6.93;0.90;;;;;;;19.71;65.06;101586.09;7353718;19;20025;-66
2023/09/29 11:31:53;;;;;;;7.33;0.80;;;;;;;19.76;66.56;101581.81;7361427;19;20018;-66